createdAt,value
2018-03-23T00:00:01.532Z,777.71
2018-03-23T00:00:05.781Z,777.68
2018-03-23T00:00:09.992Z,777.65
2018-03-23T00:00:14.002Z,777.69
2018-03-23T00:00:18.114Z,777.66
2018-03-23T00:00:22.214Z,777.67
2018-03-23T00:00:26.102Z,777.67
2018-03-23T00:00:29.987Z,777.7
2018-03-23T00:00:34.201Z,777.7
2018-03-23T00:00:38.201Z,777.7
2018-03-23T00:00:42.519Z,777.67
2018-03-23T00:00:46.830Z,777.68
2018-03-23T00:00:51.032Z,777.65
2018-03-23T00:00:55.243Z,777.67
2018-03-23T00:00:59.561Z,777.66
2018-03-23T00:01:03.795Z,777.67
2018-03-23T00:01:07.911Z,777.7
2018-03-23T00:01:12.013Z,777.66
2018-03-23T00:01:16.227Z,777.66
2018-03-23T00:01:20.109Z,777.62
2018-03-23T00:01:23.996Z,777.65
2018-03-23T00:01:28.310Z,777.65
2018-03-23T00:01:32.516Z,777.6
2018-03-23T00:01:36.725Z,777.63
2018-03-23T00:01:40.930Z,777.63
2018-03-23T00:01:45.139Z,777.64
2018-03-23T00:01:49.358Z,777.62
2018-03-23T00:01:53.679Z,777.68
2018-03-23T00:01:57.676Z,777.63
2018-03-23T00:02:01.892Z,777.66
2018-03-23T00:02:05.775Z,777.65
2018-03-23T00:02:09.769Z,777.63
2018-03-23T00:02:13.988Z,777.62
2018-03-23T00:02:18.193Z,777.66
2018-03-23T00:02:22.297Z,777.63
2018-03-23T00:02:26.177Z,777.68
2018-03-23T00:02:30.172Z,777.66
2018-03-23T00:02:34.376Z,777.64
2018-03-23T00:02:38.629Z,777.65
2018-03-23T00:02:42.641Z,777.58
2018-03-23T00:02:46.636Z,777.6
2018-03-23T00:02:50.755Z,777.58
2018-03-23T00:02:54.855Z,777.61
2018-03-23T00:02:58.965Z,777.62
2018-03-23T00:03:03.330Z,777.64
2018-03-23T00:03:07.437Z,777.63
2018-03-23T00:03:11.535Z,777.61
2018-03-23T00:03:15.748Z,777.63
2018-03-23T00:03:19.845Z,777.61
2018-03-23T00:03:23.947Z,777.64
2018-03-23T00:03:28.043Z,777.63
2018-03-23T00:03:32.164Z,777.63
2018-03-23T00:03:36.268Z,777.64
2018-03-23T00:03:40.375Z,777.6
2018-03-23T00:03:44.694Z,777.63
2018-03-23T00:03:48.795Z,777.61
2018-03-23T00:03:53.000Z,777.64
2018-03-23T00:03:57.208Z,777.65
2018-03-23T00:04:01.089Z,777.61
2018-03-23T00:04:05.491Z,777.65
2018-03-23T00:04:09.698Z,777.59
2018-03-23T00:04:13.803Z,777.59
2018-03-23T00:04:17.806Z,777.6
2018-03-23T00:04:21.800Z,777.59
2018-03-23T00:04:25.990Z,777.61
2018-03-23T00:04:29.959Z,777.6
2018-03-23T00:04:34.168Z,777.59
2018-03-23T00:04:38.376Z,777.59
2018-03-23T00:04:42.579Z,777.58
2018-03-23T00:04:46.568Z,777.57
2018-03-23T00:04:50.563Z,777.58
2018-03-23T00:04:54.771Z,777.56
2018-03-23T00:04:58.879Z,777.57
2018-03-23T00:05:03.081Z,777.55
2018-03-23T00:05:07.208Z,777.56
2018-03-23T00:05:11.357Z,777.56
2018-03-23T00:05:15.572Z,777.57
2018-03-23T00:05:19.780Z,777.57
2018-03-23T00:05:23.878Z,777.55
2018-03-23T00:05:27.874Z,777.54
2018-03-23T00:05:31.963Z,777.53
2018-03-23T00:05:35.951Z,777.52
2018-03-23T00:05:40.158Z,777.52
2018-03-23T00:05:44.367Z,777.54
2018-03-23T00:05:48.364Z,777.57
2018-03-23T00:05:52.357Z,777.54
2018-03-23T00:05:56.453Z,777.51
2018-03-23T00:06:00.445Z,777.5
2018-03-23T00:06:04.690Z,777.49
2018-03-23T00:06:08.685Z,777.51
2018-03-23T00:06:12.997Z,777.5
2018-03-23T00:06:17.208Z,777.48
2018-03-23T00:06:21.305Z,777.48
2018-03-23T00:06:25.308Z,777.51
2018-03-23T00:06:29.519Z,777.5
2018-03-23T00:06:33.620Z,777.51
2018-03-23T00:06:37.832Z,777.5
2018-03-23T00:06:41.929Z,777.51
2018-03-23T00:06:45.930Z,777.49
2018-03-23T00:06:49.919Z,777.48
2018-03-23T00:06:54.183Z,777.5
2018-03-23T00:06:58.288Z,777.47
2018-03-23T00:07:02.388Z,777.49
2018-03-23T00:07:06.382Z,777.47
2018-03-23T00:07:10.383Z,777.47
2018-03-23T00:07:14.374Z,777.46
2018-03-23T00:07:18.484Z,777.47
2018-03-23T00:07:22.365Z,777.47
2018-03-23T00:07:26.354Z,777.46
2018-03-23T00:07:30.347Z,777.48
2018-03-23T00:07:34.336Z,777.46
2018-03-23T00:07:38.335Z,777.47
2018-03-23T00:07:42.541Z,777.46
2018-03-23T00:07:46.441Z,777.45
2018-03-23T00:07:50.761Z,777.48
2018-03-23T00:07:54.860Z,777.46
2018-03-23T00:07:59.200Z,777.46
2018-03-23T00:08:03.200Z,777.47
2018-03-23T00:08:07.303Z,777.46
2018-03-23T00:08:11.296Z,777.45
2018-03-23T00:08:15.396Z,777.47
2018-03-23T00:08:19.387Z,777.44
2018-03-23T00:08:23.592Z,777.45
2018-03-23T00:08:27.645Z,777.45
2018-03-23T00:08:31.638Z,777.45
2018-03-23T00:08:35.848Z,777.44
2018-03-23T00:08:40.185Z,777.45
2018-03-23T00:08:44.405Z,777.45
2018-03-23T00:08:48.505Z,777.45
2018-03-23T00:08:52.603Z,777.44
2018-03-23T00:08:56.598Z,777.44
2018-03-23T00:09:00.592Z,777.47
2018-03-23T00:09:04.948Z,777.44
2018-03-23T00:09:08.947Z,777.45
2018-03-23T00:09:13.308Z,777.42
2018-03-23T00:09:17.408Z,777.45
2018-03-23T00:09:21.404Z,777.43
2018-03-23T00:09:25.629Z,777.42
2018-03-23T00:09:29.650Z,777.43
2018-03-23T00:09:33.866Z,777.42
2018-03-23T00:09:38.093Z,777.4
2018-03-23T00:09:42.306Z,777.42
2018-03-23T00:09:46.403Z,777.37
2018-03-23T00:09:50.504Z,777.42
2018-03-23T00:09:54.712Z,777.41
2018-03-23T00:09:59.036Z,777.39
2018-03-23T00:10:03.171Z,777.39
2018-03-23T00:10:07.275Z,777.4
2018-03-23T00:10:11.495Z,777.41
2018-03-23T00:10:15.718Z,777.4
2018-03-23T00:10:19.936Z,777.41
2018-03-23T00:10:24.035Z,777.4
2018-03-23T00:10:28.131Z,777.37
2018-03-23T00:10:32.124Z,777.37
2018-03-23T00:10:36.130Z,777.38
2018-03-23T00:10:40.233Z,777.39
2018-03-23T00:10:44.337Z,777.38
2018-03-23T00:10:48.547Z,777.42
2018-03-23T00:10:52.428Z,777.42
2018-03-23T00:10:56.437Z,777.41
2018-03-23T00:11:00.530Z,777.39
2018-03-23T00:11:04.521Z,777.41
2018-03-23T00:11:08.627Z,777.4
2018-03-23T00:11:12.839Z,777.4
2018-03-23T00:11:16.940Z,777.39
2018-03-23T00:11:21.152Z,777.4
2018-03-23T00:11:25.249Z,777.41
2018-03-23T00:11:29.242Z,777.4
2018-03-23T00:11:33.127Z,777.42
2018-03-23T00:11:37.119Z,777.4
2018-03-23T00:11:41.226Z,777.38
2018-03-23T00:11:45.219Z,777.4
2018-03-23T00:11:49.207Z,777.39
2018-03-23T00:11:53.324Z,777.38
2018-03-23T00:11:57.538Z,777.41
2018-03-23T00:12:01.648Z,777.39
2018-03-23T00:12:05.859Z,777.39
2018-03-23T00:12:09.850Z,777.39
2018-03-23T00:12:13.849Z,777.4
2018-03-23T00:12:18.066Z,777.4
2018-03-23T00:12:22.204Z,777.4
2018-03-23T00:12:26.302Z,777.42
2018-03-23T00:12:30.188Z,777.4
2018-03-23T00:12:34.507Z,777.42
2018-03-23T00:12:38.714Z,777.46
2018-03-23T00:12:42.918Z,777.41
2018-03-23T00:12:47.187Z,777.4
2018-03-23T00:12:51.288Z,777.4
2018-03-23T00:12:55.284Z,777.41
2018-03-23T00:12:59.494Z,777.44
2018-03-23T00:13:03.801Z,777.43
2018-03-23T00:13:07.898Z,777.4
2018-03-23T00:13:11.895Z,777.42
2018-03-23T00:13:15.998Z,777.41
2018-03-23T00:13:19.990Z,777.43
2018-03-23T00:13:23.875Z,777.45
2018-03-23T00:13:28.082Z,777.43
2018-03-23T00:13:32.070Z,777.44
2018-03-23T00:13:35.957Z,777.41
2018-03-23T00:13:40.286Z,777.42
2018-03-23T00:13:44.385Z,777.44
2018-03-23T00:13:48.497Z,777.44
2018-03-23T00:13:52.489Z,777.4
2018-03-23T00:13:56.584Z,777.41
2018-03-23T00:14:00.577Z,777.37
2018-03-23T00:14:04.783Z,777.36
2018-03-23T00:14:08.772Z,777.36
2018-03-23T00:14:12.761Z,777.38
2018-03-23T00:14:16.859Z,777.37
2018-03-23T00:14:20.849Z,777.39
2018-03-23T00:14:24.948Z,777.4
2018-03-23T00:14:29.064Z,777.38
2018-03-23T00:14:33.165Z,777.36
2018-03-23T00:14:37.373Z,777.37
2018-03-23T00:14:41.363Z,777.38
2018-03-23T00:14:45.360Z,777.37
2018-03-23T00:14:49.570Z,777.39
2018-03-23T00:14:53.675Z,777.35
2018-03-23T00:14:57.447Z,777.4
2018-03-23T00:15:01.440Z,777.45
2018-03-23T00:15:05.661Z,777.41
2018-03-23T00:15:09.878Z,777.41
2018-03-23T00:15:13.866Z,777.42
2018-03-23T00:15:17.970Z,777.4
2018-03-23T00:15:22.074Z,777.41
2018-03-23T00:15:26.176Z,777.44
2018-03-23T00:15:30.163Z,777.42
2018-03-23T00:15:34.370Z,777.39
2018-03-23T00:15:38.365Z,777.41
2018-03-23T00:15:42.477Z,777.4
2018-03-23T00:15:46.686Z,777.38
2018-03-23T00:15:50.788Z,777.42
2018-03-23T00:15:55.103Z,777.4
2018-03-23T00:15:59.205Z,777.41
2018-03-23T00:16:03.428Z,777.39
2018-03-23T00:16:07.422Z,777.42
2018-03-23T00:16:11.737Z,777.43
2018-03-23T00:16:16.052Z,777.41
2018-03-23T00:16:19.940Z,777.41
2018-03-23T00:16:24.041Z,777.41
2018-03-23T00:16:28.250Z,777.42
2018-03-23T00:16:32.563Z,777.39
2018-03-23T00:16:36.783Z,777.43
2018-03-23T00:16:40.988Z,777.39
2018-03-23T00:16:44.985Z,777.4
2018-03-23T00:16:49.081Z,777.41
2018-03-23T00:16:53.182Z,777.41
2018-03-23T00:16:57.281Z,777.42
2018-03-23T00:17:01.487Z,777.4
2018-03-23T00:17:05.600Z,777.39
2018-03-23T00:17:09.807Z,777.39
2018-03-23T00:17:13.706Z,777.39
2018-03-23T00:17:17.699Z,777.42
2018-03-23T00:17:21.796Z,777.41
2018-03-23T00:17:25.896Z,777.42
2018-03-23T00:17:30.001Z,777.41
2018-03-23T00:17:34.211Z,777.39
2018-03-23T00:17:38.422Z,777.4
2018-03-23T00:17:42.526Z,777.43
2018-03-23T00:17:46.411Z,777.42
2018-03-23T00:17:50.403Z,777.41
2018-03-23T00:17:54.503Z,777.42
2018-03-23T00:17:58.498Z,777.4
2018-03-23T00:18:02.709Z,777.41
2018-03-23T00:18:06.811Z,777.39
2018-03-23T00:18:11.043Z,777.37
2018-03-23T00:18:15.047Z,777.39
2018-03-23T00:18:19.258Z,777.37
2018-03-23T00:18:23.358Z,777.35
2018-03-23T00:18:27.680Z,777.45
2018-03-23T00:18:31.886Z,777.43
2018-03-23T00:18:35.991Z,777.44
2018-03-23T00:18:40.087Z,777.4
2018-03-23T00:19:16.188Z,777.43
2018-03-23T00:19:20.187Z,777.41
2018-03-23T00:19:24.291Z,777.39
2018-03-23T00:19:28.507Z,777.4
2018-03-23T00:19:32.501Z,777.41
2018-03-23T00:19:36.603Z,777.39
2018-03-23T00:19:40.923Z,777.41
2018-03-23T00:19:45.255Z,777.42
2018-03-23T00:19:49.362Z,777.39
2018-03-23T00:19:53.571Z,777.42
2018-03-23T00:19:57.781Z,777.42
2018-03-23T00:20:01.936Z,777.4
2018-03-23T00:20:05.926Z,777.38
2018-03-23T00:20:09.919Z,777.42
2018-03-23T00:20:13.966Z,777.4
2018-03-23T00:20:18.180Z,777.4
2018-03-23T00:20:22.167Z,777.4
2018-03-23T00:20:26.159Z,777.38
2018-03-23T00:20:30.271Z,777.39
2018-03-23T00:20:34.586Z,777.4
2018-03-23T00:20:38.793Z,777.37
2018-03-23T00:20:42.889Z,777.39
2018-03-23T00:20:47.107Z,777.39
2018-03-23T00:20:51.216Z,777.39
2018-03-23T00:20:55.321Z,777.39
2018-03-23T00:20:59.219Z,777.4
2018-03-23T00:21:03.318Z,777.38
2018-03-23T00:21:07.540Z,777.37
2018-03-23T00:21:11.640Z,777.4
2018-03-23T00:21:15.527Z,777.41
2018-03-23T00:21:19.515Z,777.4
2018-03-23T00:21:23.613Z,777.39
2018-03-23T00:21:27.712Z,777.41
2018-03-23T00:21:31.813Z,777.41
2018-03-23T00:21:35.927Z,777.4
2018-03-23T00:21:39.920Z,777.38
2018-03-23T00:21:44.125Z,777.36
2018-03-23T00:21:48.109Z,777.36
2018-03-23T00:21:52.224Z,777.39
2018-03-23T00:21:56.433Z,777.4
2018-03-23T00:22:00.539Z,777.39
2018-03-23T00:22:04.828Z,777.4
2018-03-23T00:22:08.823Z,777.41
2018-03-23T00:22:12.928Z,777.42
2018-03-23T00:22:17.132Z,777.37
2018-03-23T00:22:21.445Z,777.38
2018-03-23T00:22:25.563Z,777.37
2018-03-23T00:22:29.555Z,777.41
2018-03-23T00:22:33.330Z,777.41
2018-03-23T00:22:37.434Z,777.38
2018-03-23T00:22:41.537Z,777.32
2018-03-23T00:22:45.750Z,777.33
2018-03-23T00:22:49.749Z,777.33
2018-03-23T00:22:53.845Z,777.34
2018-03-23T00:22:57.947Z,777.37
2018-03-23T00:23:02.144Z,777.32
2018-03-23T00:23:06.246Z,777.38
2018-03-23T00:23:10.345Z,777.38
2018-03-23T00:23:14.341Z,777.39
2018-03-23T00:23:18.446Z,777.38
2018-03-23T00:23:22.455Z,777.39
2018-03-23T00:23:26.557Z,777.42
2018-03-23T00:23:30.675Z,777.42
2018-03-23T00:23:34.685Z,777.4
2018-03-23T00:23:38.914Z,777.42
2018-03-23T00:23:43.016Z,777.4
2018-03-23T00:23:47.227Z,777.38
2018-03-23T00:23:51.546Z,777.41
2018-03-23T00:23:55.647Z,777.41
2018-03-23T00:23:59.854Z,777.36
2018-03-23T00:24:04.069Z,777.36
2018-03-23T00:24:08.167Z,777.4
2018-03-23T00:24:12.490Z,777.4
2018-03-23T00:24:16.484Z,777.43
2018-03-23T00:24:20.801Z,777.39
2018-03-23T00:24:24.789Z,777.43
2018-03-23T00:24:29.006Z,777.41
2018-03-23T00:24:33.102Z,777.4
2018-03-23T00:24:37.311Z,777.41
2018-03-23T00:24:41.312Z,777.4
2018-03-23T00:24:45.200Z,777.43
2018-03-23T00:24:49.404Z,777.42
2018-03-23T00:24:53.505Z,777.42
2018-03-23T00:24:57.819Z,777.38
2018-03-23T00:25:02.024Z,777.38
2018-03-23T00:25:06.231Z,777.35
2018-03-23T00:25:10.228Z,777.36
2018-03-23T00:25:14.337Z,777.4
2018-03-23T00:25:18.562Z,777.41
2018-03-23T00:25:22.891Z,777.37
2018-03-23T00:25:26.997Z,777.37
2018-03-23T00:25:30.783Z,777.4
2018-03-23T00:25:34.999Z,777.38
2018-03-23T00:25:39.100Z,777.39
2018-03-23T00:25:43.210Z,777.35
2018-03-23T00:25:47.198Z,777.41
2018-03-23T00:25:51.197Z,777.4
2018-03-23T00:25:55.307Z,777.36
2018-03-23T00:25:59.407Z,777.39
2018-03-23T00:26:03.426Z,777.37
2018-03-23T00:26:07.434Z,777.38
2018-03-23T00:26:11.529Z,777.4
2018-03-23T00:26:15.733Z,777.38
2018-03-23T00:26:19.939Z,777.39
2018-03-23T00:26:23.822Z,777.37
2018-03-23T00:26:28.040Z,777.39
2018-03-23T00:26:32.142Z,777.39
2018-03-23T00:26:36.470Z,777.42
2018-03-23T00:26:40.462Z,777.38
2018-03-23T00:26:44.672Z,777.39
2018-03-23T00:26:48.777Z,777.37
2018-03-23T00:26:52.987Z,777.37
2018-03-23T00:26:57.196Z,777.38
2018-03-23T00:27:01.291Z,777.38
2018-03-23T00:27:05.496Z,777.44
2018-03-23T00:27:09.271Z,777.39
2018-03-23T00:27:13.585Z,777.4
2018-03-23T00:27:17.468Z,777.39
2018-03-23T00:27:21.569Z,777.39
2018-03-23T00:27:25.667Z,777.42
2018-03-23T00:27:29.546Z,777.41
2018-03-23T00:27:33.694Z,777.4
2018-03-23T00:27:37.802Z,777.41
2018-03-23T00:27:41.701Z,777.42
2018-03-23T00:27:45.913Z,777.39
2018-03-23T00:27:50.128Z,777.37
2018-03-23T00:27:54.340Z,777.41
2018-03-23T00:27:58.548Z,777.39
2018-03-23T00:28:02.646Z,777.39
2018-03-23T00:28:06.760Z,777.39
2018-03-23T00:28:10.969Z,777.36
2018-03-23T00:28:15.299Z,777.34
2018-03-23T00:28:19.403Z,777.38
2018-03-23T00:28:23.613Z,777.34
2018-03-23T00:28:27.825Z,777.41
2018-03-23T00:28:31.713Z,777.38
2018-03-23T00:28:36.082Z,777.39
2018-03-23T00:28:40.294Z,777.33
2018-03-23T00:28:44.514Z,777.37
2018-03-23T00:28:48.503Z,777.36
2018-03-23T00:28:52.615Z,777.35
2018-03-23T00:28:56.865Z,777.39
2018-03-23T00:29:00.640Z,777.39
2018-03-23T00:29:04.531Z,777.37
2018-03-23T00:29:08.416Z,777.35
2018-03-23T00:29:12.631Z,777.37
2018-03-23T00:29:16.836Z,777.37
2018-03-23T00:29:20.987Z,777.41
2018-03-23T00:29:25.087Z,777.39
2018-03-23T00:29:28.977Z,777.36
2018-03-23T00:29:33.076Z,777.38
2018-03-23T00:29:37.066Z,777.4
2018-03-23T00:29:41.055Z,777.33
2018-03-23T00:29:45.260Z,777.33
2018-03-23T00:29:49.263Z,777.38
2018-03-23T00:29:53.480Z,777.35
2018-03-23T00:29:57.363Z,777.37
2018-03-23T00:30:01.474Z,777.38
2018-03-23T00:30:05.691Z,777.4
2018-03-23T00:30:09.680Z,777.39
2018-03-23T00:30:13.998Z,777.38
2018-03-23T00:30:18.098Z,777.37
2018-03-23T00:30:22.212Z,777.38
2018-03-23T00:30:26.309Z,777.39
2018-03-23T00:30:30.405Z,777.38
2018-03-23T00:30:34.501Z,777.38
2018-03-23T00:30:38.605Z,777.33
2018-03-23T00:30:42.828Z,777.31
2018-03-23T00:30:47.147Z,777.34
2018-03-23T00:30:51.135Z,777.33
2018-03-23T00:30:55.239Z,777.35
2018-03-23T00:30:59.458Z,777.35
2018-03-23T00:31:03.563Z,777.34
2018-03-23T00:31:07.776Z,777.35
2018-03-23T00:31:11.777Z,777.37
2018-03-23T00:31:15.925Z,777.35
2018-03-23T00:31:20.032Z,777.34
2018-03-23T00:31:24.134Z,777.35
2018-03-23T00:31:28.130Z,777.37
2018-03-23T00:31:32.223Z,777.39
2018-03-23T00:31:36.321Z,777.42
2018-03-23T00:31:40.427Z,777.38
2018-03-23T00:31:44.526Z,777.41
2018-03-23T00:31:48.867Z,777.42
2018-03-23T00:31:52.969Z,777.38
2018-03-23T00:31:56.958Z,777.4
2018-03-23T00:32:01.199Z,777.41
2018-03-23T00:32:05.543Z,777.44
2018-03-23T00:32:09.876Z,777.42
2018-03-23T00:32:13.758Z,777.4
2018-03-23T00:32:17.639Z,777.45
2018-03-23T00:32:21.849Z,777.39
2018-03-23T00:32:26.165Z,777.42
2018-03-23T00:32:30.046Z,777.41
2018-03-23T00:32:33.931Z,777.41
2018-03-23T00:32:38.141Z,777.42
2018-03-23T00:32:42.251Z,777.46
2018-03-23T00:32:46.243Z,777.43
2018-03-23T00:32:50.235Z,777.41
2018-03-23T00:32:54.224Z,777.4
2018-03-23T00:32:58.331Z,777.41
2018-03-23T00:33:02.632Z,777.39
2018-03-23T00:33:06.630Z,777.44
2018-03-23T00:33:10.952Z,777.42
2018-03-23T00:33:15.160Z,777.41
2018-03-23T00:33:19.278Z,777.4
2018-03-23T00:33:23.380Z,777.45
2018-03-23T00:33:27.478Z,777.42
2018-03-23T00:33:31.482Z,777.44
2018-03-23T00:33:35.477Z,777.46
2018-03-23T00:33:39.803Z,777.45
2018-03-23T00:33:43.900Z,777.48
2018-03-23T00:33:47.896Z,777.45
2018-03-23T00:33:52.103Z,777.44
2018-03-23T00:33:56.205Z,777.42
2018-03-23T00:34:00.206Z,777.46
2018-03-23T00:34:04.091Z,777.46
2018-03-23T00:34:08.304Z,777.47
2018-03-23T00:34:12.621Z,777.45
2018-03-23T00:34:16.834Z,777.47
2018-03-23T00:34:21.152Z,777.45
2018-03-23T00:34:25.145Z,777.49
2018-03-23T00:34:29.133Z,777.46
2018-03-23T00:34:33.240Z,777.45
2018-03-23T00:34:37.448Z,777.49
2018-03-23T00:34:41.657Z,777.49
2018-03-23T00:34:45.881Z,777.46
2018-03-23T00:34:49.981Z,777.45
2018-03-23T00:34:54.309Z,777.46
2018-03-23T00:34:58.301Z,777.5
2018-03-23T00:35:02.614Z,777.46
2018-03-23T00:35:06.717Z,777.45
2018-03-23T00:35:10.711Z,777.44
2018-03-23T00:35:14.703Z,777.49
2018-03-23T00:35:18.696Z,777.44
2018-03-23T00:35:23.009Z,777.43
2018-03-23T00:35:27.218Z,777.4
2018-03-23T00:35:31.209Z,777.43
2018-03-23T00:35:35.532Z,777.45
2018-03-23T00:35:39.636Z,777.44
2018-03-23T00:35:43.735Z,777.46
2018-03-23T00:35:47.622Z,777.46
2018-03-23T00:35:51.721Z,777.45
2018-03-23T00:35:56.039Z,777.44
2018-03-23T00:36:00.041Z,777.46
2018-03-23T00:36:03.921Z,777.44
2018-03-23T00:36:08.131Z,777.42
2018-03-23T00:36:12.125Z,777.46
2018-03-23T00:36:16.329Z,777.45
2018-03-23T00:36:20.318Z,777.44
2018-03-23T00:36:24.633Z,777.43
2018-03-23T00:36:28.729Z,777.48
2018-03-23T00:36:32.719Z,777.46
2018-03-23T00:36:36.716Z,777.48
2018-03-23T00:36:40.490Z,777.48
2018-03-23T00:36:44.587Z,777.47
2018-03-23T00:36:48.580Z,777.47
2018-03-23T00:36:52.796Z,777.47
2018-03-23T00:36:56.784Z,777.46
2018-03-23T00:37:01.093Z,777.41
2018-03-23T00:37:05.397Z,777.44
2018-03-23T00:37:09.450Z,777.45
2018-03-23T00:37:13.448Z,777.42
2018-03-23T00:37:17.764Z,777.46
2018-03-23T00:37:22.087Z,777.47
2018-03-23T00:37:26.190Z,777.48
2018-03-23T00:37:30.071Z,777.45
2018-03-23T00:37:34.169Z,777.5
2018-03-23T00:37:38.274Z,777.47
2018-03-23T00:37:42.492Z,777.49
2018-03-23T00:37:46.158Z,777.5
2018-03-23T00:37:50.256Z,777.48
2018-03-23T00:37:54.472Z,777.5
2018-03-23T00:37:58.671Z,777.52
2018-03-23T00:38:02.768Z,777.48
2018-03-23T00:38:06.652Z,777.47
2018-03-23T00:38:10.756Z,777.49
2018-03-23T00:38:15.069Z,777.52
2018-03-23T00:38:19.064Z,777.52
2018-03-23T00:38:23.180Z,777.52
2018-03-23T00:38:27.548Z,777.55
2018-03-23T00:38:31.866Z,777.54
2018-03-23T00:38:36.179Z,777.54
2018-03-23T00:38:40.061Z,777.51
2018-03-23T00:38:44.273Z,777.53
2018-03-23T00:38:48.376Z,777.51
2018-03-23T00:38:52.371Z,777.57
2018-03-23T00:38:56.482Z,777.52
2018-03-23T00:39:00.595Z,777.53
2018-03-23T00:39:05.058Z,777.55
2018-03-23T00:39:09.158Z,777.53
2018-03-23T00:39:13.485Z,777.53
2018-03-23T00:39:17.581Z,777.54
2018-03-23T00:39:21.688Z,777.59
2018-03-23T00:39:25.812Z,777.51
2018-03-23T00:39:29.810Z,777.53
2018-03-23T00:39:34.017Z,777.53
2018-03-23T00:39:38.287Z,777.53
2018-03-23T00:39:42.383Z,777.54
2018-03-23T00:39:46.506Z,777.54
2018-03-23T00:39:50.719Z,777.53
2018-03-23T00:39:55.039Z,777.55
2018-03-23T00:39:59.033Z,777.54
2018-03-23T00:40:03.284Z,777.53
2018-03-23T00:40:07.178Z,777.57
2018-03-23T00:40:11.174Z,777.54
2018-03-23T00:40:15.411Z,777.55
2018-03-23T00:40:19.721Z,777.58
2018-03-23T00:40:23.891Z,777.6
2018-03-23T00:40:27.999Z,777.6
2018-03-23T00:40:32.370Z,777.61
2018-03-23T00:40:36.371Z,777.6
2018-03-23T00:40:40.475Z,777.63
2018-03-23T00:40:44.470Z,777.61
2018-03-23T00:40:48.680Z,777.63
2018-03-23T00:40:52.786Z,777.62
2018-03-23T00:40:56.776Z,777.65
2018-03-23T00:41:00.771Z,777.64
2018-03-23T00:41:04.768Z,777.68
2018-03-23T00:41:08.865Z,777.65
2018-03-23T00:41:12.746Z,777.63
2018-03-23T00:41:16.843Z,777.65
2018-03-23T00:41:21.057Z,777.65
2018-03-23T00:41:25.155Z,777.64
2018-03-23T00:41:29.375Z,777.66
2018-03-23T00:41:33.588Z,777.66
2018-03-23T00:41:37.921Z,777.68
2018-03-23T00:41:41.805Z,777.64
2018-03-23T00:41:46.026Z,777.69
2018-03-23T00:41:50.133Z,777.66
2018-03-23T00:41:53.907Z,777.67
2018-03-23T00:41:58.231Z,777.69
2018-03-23T00:42:02.330Z,777.68
2018-03-23T00:42:38.541Z,777.7
2018-03-23T00:42:42.791Z,777.71
2018-03-23T00:42:47.016Z,777.7
2018-03-23T00:42:51.239Z,777.7
2018-03-23T00:42:55.339Z,777.7
2018-03-23T00:42:59.650Z,777.71
2018-03-23T00:43:04.009Z,777.69
2018-03-23T00:43:08.113Z,777.69
2018-03-23T00:43:12.319Z,777.67
2018-03-23T00:43:16.203Z,777.74
2018-03-23T00:43:20.310Z,777.73
2018-03-23T00:43:24.632Z,777.74
2018-03-23T00:43:28.742Z,777.74
2018-03-23T00:43:32.869Z,777.72
2018-03-23T00:43:37.254Z,777.72
2018-03-23T00:43:41.356Z,777.72
2018-03-23T00:43:45.460Z,777.71
2018-03-23T00:43:49.450Z,777.73
2018-03-23T00:43:53.553Z,777.72
2018-03-23T00:43:57.544Z,777.67
2018-03-23T00:44:01.542Z,777.66
2018-03-23T00:44:05.753Z,777.68
2018-03-23T00:44:09.864Z,777.71
2018-03-23T00:44:13.856Z,777.71
2018-03-23T00:44:17.847Z,777.71
2018-03-23T00:44:22.057Z,777.73
2018-03-23T00:44:26.319Z,777.7
2018-03-23T00:44:30.421Z,777.69
2018-03-23T00:44:34.199Z,777.7
2018-03-23T00:44:38.204Z,777.68
2018-03-23T00:44:42.408Z,777.66
2018-03-23T00:44:46.613Z,777.69
2018-03-23T00:44:50.821Z,777.69
2018-03-23T00:44:55.035Z,777.69
2018-03-23T00:44:59.357Z,777.69
2018-03-23T00:45:03.935Z,777.68
2018-03-23T00:45:07.928Z,777.72
2018-03-23T00:45:12.136Z,777.68
2018-03-23T00:45:16.246Z,777.7
2018-03-23T00:45:20.233Z,777.67
2018-03-23T00:45:24.334Z,777.69
2018-03-23T00:45:28.324Z,777.71
2018-03-23T00:45:32.650Z,777.71
2018-03-23T00:45:36.653Z,777.72
2018-03-23T00:45:40.750Z,777.71
2018-03-23T00:45:44.852Z,777.7
2018-03-23T00:45:48.740Z,777.66
2018-03-23T00:45:52.838Z,777.7
2018-03-23T00:45:57.051Z,777.69
2018-03-23T00:46:01.268Z,777.7
2018-03-23T00:46:05.385Z,777.69
2018-03-23T00:46:09.492Z,777.7
2018-03-23T00:46:13.711Z,777.7
2018-03-23T00:46:17.918Z,777.69
2018-03-23T00:46:22.018Z,777.69
2018-03-23T00:46:26.237Z,777.71
2018-03-23T00:46:30.344Z,777.74
2018-03-23T00:46:34.559Z,777.66
2018-03-23T00:46:38.549Z,777.7
2018-03-23T00:46:42.652Z,777.73
2018-03-23T00:46:46.759Z,777.71
2018-03-23T00:46:50.975Z,777.72
2018-03-23T00:46:55.185Z,777.73
2018-03-23T00:46:59.283Z,777.71
2018-03-23T00:47:03.519Z,777.71
2018-03-23T00:47:07.526Z,777.75
2018-03-23T00:47:11.732Z,777.75
2018-03-23T00:47:15.832Z,777.74
2018-03-23T00:47:19.826Z,777.75
2018-03-23T00:47:24.047Z,777.74
2018-03-23T00:47:28.386Z,777.74
2018-03-23T00:47:32.605Z,777.76
2018-03-23T00:47:36.715Z,777.75
2018-03-23T00:47:40.820Z,777.75
2018-03-23T00:47:45.026Z,777.74
2018-03-23T00:47:49.244Z,777.76
2018-03-23T00:47:53.346Z,777.75
2018-03-23T00:47:57.450Z,777.77
2018-03-23T00:48:01.441Z,777.7
2018-03-23T00:48:05.437Z,777.78
2018-03-23T00:48:09.434Z,777.77
2018-03-23T00:48:13.645Z,777.78
2018-03-23T00:48:17.749Z,777.76
2018-03-23T00:48:21.634Z,777.76
2018-03-23T00:48:25.847Z,777.79
2018-03-23T00:48:29.837Z,777.74
2018-03-23T00:48:33.719Z,777.77
2018-03-23T00:48:37.603Z,777.78
2018-03-23T00:48:41.811Z,777.79
2018-03-23T00:48:45.936Z,777.76
2018-03-23T00:48:50.034Z,777.77
2018-03-23T00:48:54.256Z,777.77
2018-03-23T00:48:58.250Z,777.73
2018-03-23T00:49:02.432Z,777.71
2018-03-23T00:49:06.638Z,777.75
2018-03-23T00:49:10.741Z,777.74
2018-03-23T00:49:14.846Z,777.76
2018-03-23T00:49:18.944Z,777.78
2018-03-23T00:49:22.936Z,777.72
2018-03-23T00:49:26.819Z,777.75
2018-03-23T00:49:30.704Z,777.79
2018-03-23T00:49:35.018Z,777.75
2018-03-23T00:49:38.900Z,777.77
2018-03-23T00:49:43.230Z,777.76
2018-03-23T00:49:47.445Z,777.77
2018-03-23T00:49:51.548Z,777.79
2018-03-23T00:49:55.563Z,777.8
2018-03-23T00:49:59.566Z,777.78
2018-03-23T00:50:03.802Z,777.76
2018-03-23T00:50:07.581Z,777.8
2018-03-23T00:50:11.582Z,777.8
2018-03-23T00:50:15.694Z,777.79
2018-03-23T00:50:20.020Z,777.78
2018-03-23T00:50:24.120Z,777.79
2018-03-23T00:50:28.111Z,777.79
2018-03-23T00:50:32.120Z,777.82
2018-03-23T00:50:36.325Z,777.8
2018-03-23T00:50:40.541Z,777.81
2018-03-23T00:50:44.644Z,777.78
2018-03-23T00:50:48.930Z,777.8
2018-03-23T00:50:53.138Z,777.81
2018-03-23T00:50:57.343Z,777.81
2018-03-23T00:51:01.335Z,777.81
2018-03-23T00:51:05.329Z,777.8
2018-03-23T00:51:09.422Z,777.78
2018-03-23T00:51:13.519Z,777.81
2018-03-23T00:51:17.733Z,777.77
2018-03-23T00:51:21.832Z,777.82
2018-03-23T00:51:25.827Z,777.8
2018-03-23T00:51:29.709Z,777.8
2018-03-23T00:51:33.918Z,777.77
2018-03-23T00:51:38.017Z,777.77
2018-03-23T00:51:42.011Z,777.82
2018-03-23T00:51:46.230Z,777.8
2018-03-23T00:51:50.437Z,777.8
2018-03-23T00:51:54.542Z,777.81
2018-03-23T00:51:58.687Z,777.77
2018-03-23T00:52:02.678Z,777.78
2018-03-23T00:52:06.782Z,777.79
2018-03-23T00:52:10.772Z,777.77
2018-03-23T00:52:14.986Z,777.77
2018-03-23T00:52:19.364Z,777.78
2018-03-23T00:52:23.464Z,777.74
2018-03-23T00:52:27.344Z,777.78
2018-03-23T00:52:31.341Z,777.77
2018-03-23T00:52:35.440Z,777.78